sensor_id;sensor_type;location;lat;lon;timestamp;P1;durP1;ratioP1;P2;durP2;ratioP2
47259;SDS011;32999;52.412;4.890;2024-02-26T00:04:57;9.30;;;5.80;;
47259;SDS011;32999;52.412;4.890;2024-02-26T00:09:59;9.00;;;5.50;;
47259;SDS011;32999;52.412;4.890;2024-02-26T00:15:02;8.80;;;5.25;;
47259;SDS011;32999;52.412;4.890;2024-02-26T00:20:07;8.63;;;5.47;;
47259;SDS011;32999;52.412;4.890;2024-02-26T00:30:47;8.32;;;4.72;;
47259;SDS011;32999;52.412;4.890;2024-02-26T00:35:49;9.57;;;6.38;;
47259;SDS011;32999;52.412;4.890;2024-02-26T00:41:00;9.20;;;4.38;;
47259;SDS011;32999;52.412;4.890;2024-02-26T00:46:18;6.05;;;4.72;;
47259;SDS011;32999;52.412;4.890;2024-02-26T00:51:20;7.70;;;4.93;;
47259;SDS011;32999;52.412;4.890;2024-02-26T00:56:24;7.22;;;4.30;;
47259;SDS011;32999;52.412;4.890;2024-02-26T01:01:29;8.10;;;4.78;;
47259;SDS011;32999;52.412;4.890;2024-02-26T01:06:33;8.57;;;4.90;;
47259;SDS011;32999;52.412;4.890;2024-02-26T01:11:35;7.20;;;4.35;;
47259;SDS011;32999;52.412;4.890;2024-02-26T01:16:38;7.78;;;4.63;;
47259;SDS011;32999;52.412;4.890;2024-02-26T01:21:40;7.32;;;4.78;;
47259;SDS011;32999;52.412;4.890;2024-02-26T01:26:42;8.82;;;5.47;;
47259;SDS011;32999;52.412;4.890;2024-02-26T01:31:45;11.25;;;4.70;;
47259;SDS011;32999;52.412;4.890;2024-02-26T01:42:26;9.82;;;5.95;;
47259;SDS011;32999;52.412;4.890;2024-02-26T01:47:32;9.13;;;5.25;;
47259;SDS011;32999;52.412;4.890;2024-02-26T01:52:36;8.52;;;5.43;;
47259;SDS011;32999;52.412;4.890;2024-02-26T01:57:39;12.60;;;6.25;;
47259;SDS011;32999;52.412;4.890;2024-02-26T02:02:54;9.68;;;6.60;;
47259;SDS011;32999;52.412;4.890;2024-02-26T02:08:05;11.48;;;6.15;;
47259;SDS011;32999;52.412;4.890;2024-02-26T02:13:10;9.85;;;6.13;;
47259;SDS011;32999;52.412;4.890;2024-02-26T02:18:13;12.13;;;6.53;;
47259;SDS011;32999;52.412;4.890;2024-02-26T02:23:36;10.13;;;6.32;;
47259;SDS011;32999;52.412;4.890;2024-02-26T02:28:49;10.35;;;6.40;;
47259;SDS011;32999;52.412;4.890;2024-02-26T02:50:58;20.00;;;7.90;;
47259;SDS011;32999;52.412;4.890;2024-02-26T03:02:23;10.02;;;7.00;;
47259;SDS011;32999;52.412;4.890;2024-02-26T03:07:18;11.02;;;6.78;;
47259;SDS011;32999;52.412;4.890;2024-02-26T03:12:26;11.15;;;6.78;;
47259;SDS011;32999;52.412;4.890;2024-02-26T03:17:29;13.85;;;7.30;;
47259;SDS011;32999;52.412;4.890;2024-02-26T03:27:37;11.38;;;6.85;;
47259;SDS011;32999;52.412;4.890;2024-02-26T03:32:41;11.77;;;6.40;;
47259;SDS011;32999;52.412;4.890;2024-02-26T03:38:02;16.23;;;7.97;;
47259;SDS011;32999;52.412;4.890;2024-02-26T03:43:26;13.98;;;7.47;;
47259;SDS011;32999;52.412;4.890;2024-02-26T03:48:28;16.33;;;9.05;;
47259;SDS011;32999;52.412;4.890;2024-02-26T03:53:33;12.82;;;7.32;;
47259;SDS011;32999;52.412;4.890;2024-02-26T03:58:42;16.42;;;8.73;;
47259;SDS011;32999;52.412;4.890;2024-02-26T04:04:07;15.20;;;7.72;;
47259;SDS011;32999;52.412;4.890;2024-02-26T04:09:09;15.45;;;7.85;;
47259;SDS011;32999;52.412;4.890;2024-02-26T04:14:18;20.05;;;10.82;;
47259;SDS011;32999;52.412;4.890;2024-02-26T04:19:43;15.93;;;9.00;;
47259;SDS011;32999;52.412;4.890;2024-02-26T05:15:55;24.42;;;12.55;;
47259;SDS011;32999;52.412;4.890;2024-02-26T05:21:05;18.45;;;10.68;;
47259;SDS011;32999;52.412;4.890;2024-02-26T05:55:27;13.15;;;8.00;;
47259;SDS011;32999;52.412;4.890;2024-02-26T06:06:49;13.77;;;7.50;;
47259;SDS011;32999;52.412;4.890;2024-02-26T06:17:44;12.63;;;7.18;;
47259;SDS011;32999;52.412;4.890;2024-02-26T07:20:40;6.35;;;3.90;;
47259;SDS011;32999;52.412;4.890;2024-02-26T07:37:20;5.60;;;3.42;;
47259;SDS011;32999;52.412;4.890;2024-02-26T07:42:32;8.98;;;3.13;;
47259;SDS011;32999;52.412;4.890;2024-02-26T07:47:34;5.55;;;3.22;;
47259;SDS011;32999;52.412;4.890;2024-02-26T07:58:24;4.50;;;2.85;;
47259;SDS011;32999;52.412;4.890;2024-02-26T09:01:25;3.60;;;2.47;;
47259;SDS011;32999;52.412;4.890;2024-02-26T09:06:46;5.57;;;2.63;;
47259;SDS011;32999;52.412;4.890;2024-02-26T09:11:59;5.93;;;2.05;;
47259;SDS011;32999;52.412;4.890;2024-02-26T09:17:19;6.28;;;2.85;;
47259;SDS011;32999;52.412;4.890;2024-02-26T09:22:20;3.38;;;2.28;;
47259;SDS011;32999;52.412;4.890;2024-02-26T09:27:32;7.43;;;2.97;;
47259;SDS011;32999;52.412;4.890;2024-02-26T09:32:47;4.00;;;2.45;;
47259;SDS011;32999;52.412;4.890;2024-02-26T09:37:52;2.50;;;1.85;;
47259;SDS011;32999;52.412;4.890;2024-02-26T10:05:57;5.30;;;2.08;;
47259;SDS011;32999;52.412;4.890;2024-02-26T10:11:04;4.93;;;2.25;;
47259;SDS011;32999;52.412;4.890;2024-02-26T10:16:26;6.18;;;2.22;;
47259;SDS011;32999;52.412;4.890;2024-02-26T10:21:31;7.20;;;3.15;;
47259;SDS011;32999;52.412;4.890;2024-02-26T10:26:35;3.08;;;2.10;;
47259;SDS011;32999;52.412;4.890;2024-02-26T10:31:50;3.15;;;1.75;;
47259;SDS011;32999;52.412;4.890;2024-02-26T10:42:43;3.83;;;1.80;;
47259;SDS011;32999;52.412;4.890;2024-02-26T10:47:49;3.35;;;1.63;;
47259;SDS011;32999;52.412;4.890;2024-02-26T11:27:34;4.82;;;2.80;;
47259;SDS011;32999;52.412;4.890;2024-02-26T11:50:42;5.10;;;1.30;;
47259;SDS011;32999;52.412;4.890;2024-02-26T12:01:02;10.02;;;1.65;;
47259;SDS011;32999;52.412;4.890;2024-02-26T12:06:20;3.85;;;1.77;;
47259;SDS011;32999;52.412;4.890;2024-02-26T12:27:45;6.57;;;2.58;;
47259;SDS011;32999;52.412;4.890;2024-02-26T12:32:47;2.60;;;1.20;;
47259;SDS011;32999;52.412;4.890;2024-02-26T12:37:49;2.95;;;1.63;;
47259;SDS011;32999;52.412;4.890;2024-02-26T12:42:53;2.17;;;1.00;;
47259;SDS011;32999;52.412;4.890;2024-02-26T12:48:09;3.95;;;1.73;;
47259;SDS011;32999;52.412;4.890;2024-02-26T12:53:15;1.65;;;1.13;;
47259;SDS011;32999;52.412;4.890;2024-02-26T12:58:29;6.20;;;1.33;;
47259;SDS011;32999;52.412;4.890;2024-02-26T13:14:37;2.10;;;1.08;;
47259;SDS011;32999;52.412;4.890;2024-02-26T13:20:09;2.63;;;0.98;;
47259;SDS011;32999;52.412;4.890;2024-02-26T14:10:15;2.05;;;1.30;;
47259;SDS011;32999;52.412;4.890;2024-02-26T14:55:18;4.57;;;1.38;;
47259;SDS011;32999;52.412;4.890;2024-02-26T15:00:20;6.65;;;1.98;;
47259;SDS011;32999;52.412;4.890;2024-02-26T15:05:22;7.22;;;2.75;;
47259;SDS011;32999;52.412;4.890;2024-02-26T15:16:16;12.73;;;2.10;;
47259;SDS011;32999;52.412;4.890;2024-02-26T15:21:21;2.80;;;1.23;;
47259;SDS011;32999;52.412;4.890;2024-02-26T15:26:45;4.47;;;2.17;;
47259;SDS011;32999;52.412;4.890;2024-02-26T15:31:52;5.15;;;1.73;;
47259;SDS011;32999;52.412;4.890;2024-02-26T15:36:53;4.82;;;2.08;;
47259;SDS011;32999;52.412;4.890;2024-02-26T15:41:55;4.72;;;1.95;;
47259;SDS011;32999;52.412;4.890;2024-02-26T15:46:59;6.88;;;2.85;;
47259;SDS011;32999;52.412;4.890;2024-02-26T15:52:08;3.00;;;1.50;;
47259;SDS011;32999;52.412;4.890;2024-02-26T15:57:13;9.55;;;1.98;;
47259;SDS011;32999;52.412;4.890;2024-02-26T16:02:22;3.55;;;1.73;;
47259;SDS011;32999;52.412;4.890;2024-02-26T16:07:25;9.07;;;3.65;;
47259;SDS011;32999;52.412;4.890;2024-02-26T16:12:35;9.13;;;3.83;;
47259;SDS011;32999;52.412;4.890;2024-02-26T16:17:59;3.22;;;2.00;;
47259;SDS011;32999;52.412;4.890;2024-02-26T16:23:17;4.45;;;1.70;;
47259;SDS011;32999;52.412;4.890;2024-02-26T16:29:40;4.20;;;1.80;;
47259;SDS011;32999;52.412;4.890;2024-02-26T16:39:37;3.65;;;1.83;;
47259;SDS011;32999;52.412;4.890;2024-02-26T16:44:39;3.67;;;1.48;;
47259;SDS011;32999;52.412;4.890;2024-02-26T16:49:41;9.65;;;2.03;;
47259;SDS011;32999;52.412;4.890;2024-02-26T16:54:44;4.90;;;1.40;;
47259;SDS011;32999;52.412;4.890;2024-02-26T16:59:46;3.10;;;1.63;;
47259;SDS011;32999;52.412;4.890;2024-02-26T17:10:18;5.57;;;1.40;;
47259;SDS011;32999;52.412;4.890;2024-02-26T17:15:19;4.70;;;1.10;;
47259;SDS011;32999;52.412;4.890;2024-02-26T17:26:34;5.43;;;1.58;;
47259;SDS011;32999;52.412;4.890;2024-02-26T17:31:36;3.28;;;0.88;;
47259;SDS011;32999;52.412;4.890;2024-02-26T17:36:53;8.38;;;2.35;;
47259;SDS011;32999;52.412;4.890;2024-02-26T17:42:01;3.22;;;1.45;;
47259;SDS011;32999;52.412;4.890;2024-02-26T17:47:27;6.65;;;1.20;;
47259;SDS011;32999;52.412;4.890;2024-02-26T17:52:47;4.35;;;1.00;;
47259;SDS011;32999;52.412;4.890;2024-02-26T17:57:57;2.78;;;0.70;;
47259;SDS011;32999;52.412;4.890;2024-02-26T18:08:57;2.72;;;0.80;;
47259;SDS011;32999;52.412;4.890;2024-02-26T19:11:27;3.83;;;1.30;;
47259;SDS011;32999;52.412;4.890;2024-02-26T19:16:38;2.25;;;0.73;;
47259;SDS011;32999;52.412;4.890;2024-02-26T19:22:49;4.70;;;1.45;;
47259;SDS011;32999;52.412;4.890;2024-02-26T19:28:07;2.67;;;0.70;;
47259;SDS011;32999;52.412;4.890;2024-02-26T19:44:26;9.05;;;3.22;;
47259;SDS011;32999;52.412;4.890;2024-02-26T19:49:45;4.72;;;1.25;;
47259;SDS011;32999;52.412;4.890;2024-02-26T20:00:29;4.20;;;2.05;;
47259;SDS011;32999;52.412;4.890;2024-02-26T20:10:59;7.05;;;1.25;;
47259;SDS011;32999;52.412;4.890;2024-02-26T20:21:48;5.40;;;1.45;;
47259;SDS011;32999;52.412;4.890;2024-02-26T20:27:01;5.32;;;1.77;;
47259;SDS011;32999;52.412;4.890;2024-02-26T20:32:08;1.30;;;0.90;;
47259;SDS011;32999;52.412;4.890;2024-02-26T20:43:13;1.65;;;0.90;;
47259;SDS011;32999;52.412;4.890;2024-02-26T21:39:03;3.25;;;1.25;;
47259;SDS011;32999;52.412;4.890;2024-02-26T21:44:34;2.35;;;1.20;;
47259;SDS011;32999;52.412;4.890;2024-02-26T21:49:48;4.63;;;0.98;;
47259;SDS011;32999;52.412;4.890;2024-02-26T22:00:41;2.58;;;0.93;;
47259;SDS011;32999;52.412;4.890;2024-02-26T22:05:54;3.50;;;1.00;;
47259;SDS011;32999;52.412;4.890;2024-02-26T22:11:01;4.57;;;2.28;;
47259;SDS011;32999;52.412;4.890;2024-02-26T22:26:41;1.85;;;1.10;;
47259;SDS011;32999;52.412;4.890;2024-02-26T22:31:49;1.17;;;0.90;;
47259;SDS011;32999;52.412;4.890;2024-02-26T22:36:56;1.75;;;1.10;;
47259;SDS011;32999;52.412;4.890;2024-02-26T22:42:00;1.25;;;0.90;;
47259;SDS011;32999;52.412;4.890;2024-02-26T22:47:01;1.65;;;0.93;;
47259;SDS011;32999;52.412;4.890;2024-02-26T22:52:07;1.58;;;0.98;;
47259;SDS011;32999;52.412;4.890;2024-02-26T22:57:53;1.73;;;1.35;;
47259;SDS011;32999;52.412;4.890;2024-02-26T23:08:34;2.25;;;0.90;;
47259;SDS011;32999;52.412;4.890;2024-02-26T23:19:35;1.92;;;1.02;;
47259;SDS011;32999;52.412;4.890;2024-02-26T23:30:34;3.88;;;1.05;;
47259;SDS011;32999;52.412;4.890;2024-02-26T23:35:43;2.05;;;1.20;;
47259;SDS011;32999;52.412;4.890;2024-02-26T23:40:45;3.08;;;1.38;;
47259;SDS011;32999;52.412;4.890;2024-02-26T23:45:47;3.25;;;1.30;;
47259;SDS011;32999;52.412;4.890;2024-02-26T23:50:52;3.30;;;1.30;;
47259;SDS011;32999;52.412;4.890;2024-02-26T23:55:54;2.75;;;1.05;;
